createdAt,value
2022-08-28T00:00:26.420Z,18.79
2022-08-28T00:01:44.039Z,19.23
2022-08-28T00:02:52.054Z,19.71
2022-08-28T00:04:01.517Z,19.47
2022-08-28T00:05:10.642Z,19.51
2022-08-28T00:06:20.712Z,19.82
2022-08-28T00:07:28.640Z,19.98
2022-08-28T00:08:36.480Z,19.96
2022-08-28T00:09:43.775Z,19.71
2022-08-28T00:10:51.761Z,19.04
2022-08-28T00:12:00.257Z,19.12
2022-08-28T00:13:09.581Z,19.72
2022-08-28T00:14:21.039Z,20.14
2022-08-28T00:15:32.924Z,20.52
2022-08-28T00:16:40.061Z,20.89
2022-08-28T00:17:47.951Z,21.16
2022-08-28T00:18:56.897Z,20.97
2022-08-28T00:20:06.231Z,20.73
2022-08-28T00:21:14.303Z,20.89
2022-08-28T00:22:21.583Z,20.76
2022-08-28T00:23:36.958Z,20.51
2022-08-28T00:24:50.504Z,20.39
2022-08-28T00:26:02.681Z,20.57
2022-08-28T00:27:28.604Z,20.92
2022-08-28T00:28:35.987Z,21.30
2022-08-28T00:29:42.788Z,21.48
2022-08-28T00:30:51.897Z,21.65
2022-08-28T00:31:59.200Z,22.12
2022-08-28T00:33:09.429Z,22.29
2022-08-28T00:34:17.847Z,22.72
2022-08-28T00:35:27.336Z,22.50
2022-08-28T00:36:35.121Z,22.39
2022-08-28T00:37:41.827Z,22.63
2022-08-28T00:38:48.915Z,22.75
2022-08-28T00:39:55.991Z,22.85
2022-08-28T00:41:05.033Z,22.91
2022-08-28T00:42:12.158Z,22.69
2022-08-28T00:43:37.625Z,22.58
2022-08-28T00:44:46.519Z,22.74
2022-08-28T00:45:53.570Z,22.80
2022-08-28T00:47:00.915Z,22.63
2022-08-28T00:48:08.361Z,22.76
2022-08-28T00:49:16.515Z,22.83
2022-08-28T00:50:24.957Z,22.60
2022-08-28T00:51:50.185Z,22.80
2022-08-28T00:53:01.476Z,23.30
2022-08-28T00:54:08.743Z,23.59
2022-08-28T00:55:21.261Z,23.96
2022-08-28T00:56:28.554Z,24.05
2022-08-28T00:57:56.874Z,24.16
2022-08-28T00:59:07.532Z,24.16
2022-08-28T01:00:18.697Z,24.18
2022-08-28T01:01:26.735Z,24.41
2022-08-28T01:02:34.313Z,24.86
2022-08-28T01:03:41.389Z,24.77
2022-08-28T01:04:49.762Z,24.73
2022-08-28T01:05:57.421Z,24.56
2022-08-28T01:07:07.520Z,24.53
2022-08-28T01:08:15.293Z,24.76
2022-08-28T01:09:27.134Z,25.14
2022-08-28T01:10:34.668Z,24.98
2022-08-28T01:11:42.990Z,24.90
2022-08-28T01:12:51.695Z,25.15
2022-08-28T01:14:01.916Z,25.27
2022-08-28T01:15:13.954Z,25.13
2022-08-28T01:16:21.305Z,24.44
2022-08-28T01:17:30.074Z,24.29
2022-08-28T01:18:37.384Z,24.16
2022-08-28T01:19:53.875Z,24.20
2022-08-28T01:21:26.479Z,24.26
2022-08-28T01:22:39.895Z,24.64
2022-08-28T01:23:49.401Z,24.66
2022-08-28T01:24:59.777Z,24.71
2022-08-28T01:26:11.706Z,24.87
2022-08-28T01:27:19.647Z,25.02
2022-08-28T01:28:29.479Z,25.50
2022-08-28T01:29:38.303Z,25.65
2022-08-28T01:30:46.740Z,25.59
2022-08-28T01:31:54.008Z,25.56
2022-08-28T01:33:01.127Z,25.73
2022-08-28T01:34:08.795Z,25.43
2022-08-28T01:35:19.940Z,25.33
2022-08-28T01:36:28.349Z,25.58
2022-08-28T01:37:36.394Z,25.41
2022-08-28T01:38:44.069Z,25.67
2022-08-28T01:39:51.916Z,26.04
2022-08-28T01:41:01.251Z,26.27
2022-08-28T01:42:10.669Z,26.36
2022-08-28T01:43:23.768Z,26.62
2022-08-28T01:44:31.421Z,26.89
2022-08-28T01:45:39.298Z,26.79
2022-08-28T01:46:47.584Z,26.80
2022-08-28T01:47:56.278Z,26.35
2022-08-28T01:49:04.618Z,25.99
2022-08-28T01:50:15.173Z,25.92
2022-08-28T01:51:24.714Z,25.83
2022-08-28T01:52:33.196Z,25.84
2022-08-28T01:53:40.994Z,25.49
2022-08-28T01:54:48.604Z,25.23
2022-08-28T01:55:57.746Z,24.75
2022-08-28T01:57:06.591Z,24.97
2022-08-28T01:58:15.354Z,25.08
2022-08-28T01:59:27.350Z,24.96
2022-08-28T02:00:36.935Z,24.89
2022-08-28T02:01:45.361Z,25.11
2022-08-28T02:02:53.745Z,25.64
2022-08-28T02:04:06.478Z,26.26
2022-08-28T02:05:15.548Z,26.70
2022-08-28T02:06:23.706Z,26.73
2022-08-28T02:07:31.730Z,27.32
2022-08-28T02:08:38.902Z,27.64
2022-08-28T02:09:46.006Z,27.91
2022-08-28T02:10:53.962Z,28.51
2022-08-28T02:12:01.110Z,29.09
2022-08-28T02:13:09.461Z,29.50
2022-08-28T02:14:18.448Z,29.77
2022-08-28T02:15:26.957Z,30.18
2022-08-28T02:16:34.367Z,30.85
2022-08-28T02:17:41.639Z,31.16
2022-08-28T02:18:50.452Z,31.99
2022-08-28T02:19:57.881Z,32.22
2022-08-28T02:21:06.415Z,32.60
2022-08-28T02:22:15.287Z,33.29
2022-08-28T02:23:23.520Z,34.18
2022-08-28T02:24:31.462Z,34.29
2022-08-28T02:25:39.041Z,34.84
2022-08-28T02:26:47.382Z,35.85
2022-08-28T02:27:56.496Z,35.92
2022-08-28T02:29:05.294Z,36.49
2022-08-28T02:30:14.084Z,36.83
2022-08-28T02:31:22.645Z,36.75
2022-08-28T02:32:31.675Z,36.84
2022-08-28T02:33:42.914Z,37.00
2022-08-28T02:34:51.219Z,37.22
2022-08-28T02:36:00.574Z,37.86
2022-08-28T02:37:10.339Z,38.44
2022-08-28T02:38:19.359Z,38.57
2022-08-28T02:39:27.682Z,38.79
2022-08-28T02:40:35.229Z,39.19
2022-08-28T02:41:42.226Z,39.83
2022-08-28T02:42:50.183Z,40.18
2022-08-28T02:43:58.734Z,40.63
2022-08-28T02:45:08.166Z,40.85
2022-08-28T02:46:16.704Z,41.04
2022-08-28T02:47:24.667Z,41.15
2022-08-28T02:48:36.271Z,41.27
2022-08-28T02:49:44.200Z,41.57
2022-08-28T02:50:51.844Z,41.77
2022-08-28T02:52:01.292Z,42.14
2022-08-28T02:53:09.991Z,42.34
2022-08-28T02:54:18.559Z,42.38
2022-08-28T02:55:28.628Z,42.50
2022-08-28T02:56:38.990Z,42.43
2022-08-28T02:57:46.811Z,42.74
2022-08-28T02:58:55.343Z,42.70
2022-08-28T03:00:08.651Z,42.82
2022-08-28T03:01:17.499Z,43.09
2022-08-28T03:02:26.655Z,43.11
2022-08-28T03:03:34.319Z,43.13
2022-08-28T03:04:42.815Z,43.20
2022-08-28T03:05:50.130Z,43.72
2022-08-28T03:06:57.948Z,43.85
2022-08-28T03:08:06.695Z,44.04
2022-08-28T03:09:15.554Z,44.00
2022-08-28T03:10:25.622Z,44.55
2022-08-28T03:11:33.887Z,44.53
2022-08-28T03:12:41.300Z,44.91
2022-08-28T03:13:49.255Z,45.36
2022-08-28T03:14:57.143Z,45.40
2022-08-28T03:16:06.598Z,45.63
2022-08-28T03:17:15.772Z,46.04
2022-08-28T03:18:24.353Z,46.56
2022-08-28T03:19:34.161Z,46.74
2022-08-28T03:20:41.924Z,46.75
2022-08-28T03:21:49.149Z,46.70
2022-08-28T03:23:19.166Z,47.07
2022-08-28T03:24:28.142Z,47.87
2022-08-28T03:25:35.990Z,48.05
2022-08-28T03:26:43.515Z,48.36
2022-08-28T03:27:51.876Z,49.27
2022-08-28T03:29:00.632Z,49.72
2022-08-28T03:30:09.093Z,49.82
2022-08-28T03:31:19.191Z,50.06
2022-08-28T03:32:29.319Z,50.76
2022-08-28T03:33:37.228Z,50.77
2022-08-28T03:34:44.391Z,51.40
2022-08-28T03:35:51.580Z,51.91
2022-08-28T03:36:59.570Z,52.08
2022-08-28T03:38:07.580Z,52.46
2022-08-28T03:39:17.214Z,52.66
2022-08-28T03:40:25.097Z,52.93
2022-08-28T03:41:32.525Z,53.08
2022-08-28T03:42:39.764Z,52.93
2022-08-28T03:43:46.850Z,52.93
2022-08-28T03:44:55.970Z,53.22
2022-08-28T03:46:06.159Z,53.49
2022-08-28T03:47:14.202Z,53.97
2022-08-28T03:48:22.895Z,54.42
2022-08-28T03:49:30.675Z,54.32
2022-08-28T03:50:38.087Z,54.74
2022-08-28T03:51:45.345Z,54.73
2022-08-28T03:52:52.608Z,54.56
2022-08-28T03:54:00.887Z,54.55
2022-08-28T03:55:10.592Z,55.12
2022-08-28T03:56:23.288Z,55.30
2022-08-28T03:57:31.649Z,55.34
2022-08-28T03:58:40.351Z,55.05
2022-08-28T03:59:51.126Z,54.97
2022-08-28T04:00:59.480Z,55.00
2022-08-28T04:02:07.583Z,55.03
2022-08-28T04:03:16.425Z,55.17
2022-08-28T04:04:24.810Z,55.01
2022-08-28T04:05:32.600Z,55.27
2022-08-28T04:06:40.156Z,55.16
2022-08-28T04:07:47.226Z,55.55
2022-08-28T04:08:55.173Z,55.52
2022-08-28T04:10:09.520Z,55.44
2022-08-28T04:11:18.629Z,55.66
2022-08-28T04:12:27.355Z,55.98
2022-08-28T04:13:36.744Z,56.31
2022-08-28T04:14:43.784Z,56.11
2022-08-28T04:16:06.368Z,56.23
2022-08-28T04:17:14.205Z,56.74
2022-08-28T04:18:21.333Z,56.96
2022-08-28T04:19:28.505Z,57.16
2022-08-28T04:20:36.513Z,57.52
2022-08-28T04:21:44.144Z,57.08
2022-08-28T04:22:53.012Z,57.31
2022-08-28T04:24:05.831Z,57.65
2022-08-28T04:25:18.444Z,57.29
2022-08-28T04:26:27.085Z,57.99
2022-08-28T04:27:36.290Z,58.32
2022-08-28T04:28:43.528Z,58.51
2022-08-28T04:29:51.539Z,58.16
2022-08-28T04:30:58.962Z,58.54
2022-08-28T04:32:06.267Z,58.17
2022-08-28T04:33:13.563Z,58.49
2022-08-28T04:34:20.937Z,58.76
2022-08-28T04:35:28.649Z,58.65
2022-08-28T04:36:36.529Z,58.98
2022-08-28T04:37:45.031Z,59.46
2022-08-28T04:38:52.824Z,59.58
2022-08-28T04:40:01.559Z,59.74
2022-08-28T04:41:10.996Z,59.58
2022-08-28T04:42:19.526Z,60.09
2022-08-28T04:43:27.603Z,59.83
2022-08-28T04:44:35.816Z,59.49
2022-08-28T04:45:46.784Z,59.56
2022-08-28T04:46:55.313Z,60.54
2022-08-28T04:48:11.387Z,60.70
2022-08-28T04:49:21.701Z,60.63
2022-08-28T04:50:33.928Z,60.35
2022-08-28T04:51:47.648Z,60.10
2022-08-28T04:52:55.761Z,60.13
2022-08-28T04:54:04.762Z,60.46
2022-08-28T04:55:12.480Z,60.51
2022-08-28T04:56:19.720Z,60.55
2022-08-28T04:57:27.684Z,61.03
2022-08-28T04:58:36.693Z,61.15
2022-08-28T04:59:46.384Z,61.27
2022-08-28T05:00:53.643Z,61.23
2022-08-28T05:02:01.386Z,61.45
2022-08-28T05:03:08.715Z,61.77
2022-08-28T05:04:16.020Z,61.80
2022-08-28T05:05:23.253Z,61.85
2022-08-28T05:06:33.926Z,62.02
2022-08-28T05:07:41.112Z,62.33
2022-08-28T05:08:52.676Z,62.39
2022-08-28T05:09:59.852Z,62.45
2022-08-28T05:11:13.535Z,62.42
2022-08-28T05:12:37.460Z,62.75
2022-08-28T05:13:44.833Z,63.09
2022-08-28T05:14:53.165Z,63.21
2022-08-28T05:16:02.093Z,63.50
2022-08-28T05:17:10.630Z,63.70
2022-08-28T05:18:19.076Z,63.81
2022-08-28T05:19:27.471Z,63.64
2022-08-28T05:20:41.364Z,63.55
2022-08-28T05:21:49.217Z,63.89
2022-08-28T05:22:57.542Z,63.98
2022-08-28T05:24:06.276Z,63.64
2022-08-28T05:25:16.691Z,64.32
2022-08-28T05:26:27.067Z,64.51
2022-08-28T05:27:37.101Z,64.63
2022-08-28T05:28:44.293Z,64.92
2022-08-28T05:29:52.414Z,65.03
2022-08-28T05:30:59.575Z,65.16
2022-08-28T05:32:07.044Z,65.57
2022-08-28T05:33:15.246Z,65.63
2022-08-28T05:34:22.394Z,65.93
2022-08-28T05:35:29.642Z,66.00
2022-08-28T05:36:38.065Z,66.05
2022-08-28T05:37:45.320Z,66.43
2022-08-28T05:38:54.541Z,66.27
2022-08-28T05:40:01.705Z,66.17
2022-08-28T05:41:09.794Z,66.15
2022-08-28T05:42:17.014Z,66.56
2022-08-28T05:43:24.377Z,66.90
2022-08-28T05:44:34.712Z,66.92
2022-08-28T05:45:42.041Z,67.07
2022-08-28T05:46:52.403Z,66.68
2022-08-28T05:47:59.551Z,66.82
2022-08-28T05:49:09.855Z,66.93
2022-08-28T05:50:18.085Z,66.95
2022-08-28T05:51:30.256Z,67.19
2022-08-28T05:52:37.939Z,66.96
2022-08-28T05:53:45.798Z,67.00
2022-08-28T05:54:53.194Z,67.47
2022-08-28T05:56:00.384Z,67.60
2022-08-28T05:57:07.891Z,67.64
2022-08-28T05:58:35.215Z,67.73
2022-08-28T05:59:42.244Z,67.69
2022-08-28T06:00:49.611Z,67.91
2022-08-28T06:01:59.845Z,68.19
2022-08-28T06:03:11.402Z,68.34
2022-08-28T06:04:20.645Z,68.29
2022-08-28T06:05:27.807Z,68.26
2022-08-28T06:06:39.613Z,68.20
2022-08-28T06:07:47.641Z,68.37
2022-08-28T06:09:01.637Z,68.04
2022-08-28T06:10:10.600Z,67.98
2022-08-28T06:11:23.665Z,68.08
2022-08-28T06:12:32.115Z,68.06
2022-08-28T06:13:42.170Z,68.08
2022-08-28T06:14:50.994Z,67.98
2022-08-28T06:15:58.415Z,67.85
2022-08-28T06:17:06.429Z,68.00
2022-08-28T06:18:14.377Z,68.63
2022-08-28T06:19:22.515Z,68.48
2022-08-28T06:20:31.315Z,68.48
2022-08-28T06:21:42.436Z,68.47
2022-08-28T06:22:52.743Z,68.26
2022-08-28T06:24:00.053Z,67.98
2022-08-28T06:25:08.895Z,67.93
2022-08-28T06:26:16.175Z,67.78
2022-08-28T06:27:25.894Z,67.90
2022-08-28T06:28:32.674Z,68.00
2022-08-28T06:29:41.129Z,68.25
2022-08-28T06:31:02.934Z,68.56
2022-08-28T06:32:18.228Z,68.91
2022-08-28T06:33:26.206Z,69.29
2022-08-28T06:34:36.115Z,69.31
2022-08-28T06:35:45.097Z,69.44
2022-08-28T06:36:54.237Z,69.42
2022-08-28T06:38:02.882Z,69.34
2022-08-28T06:39:13.093Z,69.67
2022-08-28T06:40:20.991Z,69.94
2022-08-28T06:41:31.253Z,70.09
2022-08-28T06:42:38.721Z,69.76
2022-08-28T06:43:48.973Z,69.73
2022-08-28T06:44:57.301Z,69.93
2022-08-28T06:46:06.143Z,70.16
2022-08-28T06:47:16.535Z,70.53
2022-08-28T06:48:26.910Z,70.42
2022-08-28T06:49:37.572Z,70.33
2022-08-28T06:50:46.505Z,70.53
2022-08-28T06:51:54.073Z,70.45
2022-08-28T06:53:03.102Z,70.49
2022-08-28T06:54:11.614Z,70.97
2022-08-28T06:55:20.115Z,71.20
2022-08-28T06:56:29.546Z,71.22
2022-08-28T06:57:37.672Z,71.40
2022-08-28T06:58:50.315Z,71.54
2022-08-28T07:00:00.159Z,71.76
2022-08-28T07:01:14.281Z,71.85
2022-08-28T07:02:23.411Z,72.06
2022-08-28T07:03:37.092Z,72.09
2022-08-28T07:04:54.149Z,71.91
2022-08-28T07:06:01.370Z,71.58
2022-08-28T07:07:10.357Z,71.77
2022-08-28T07:08:28.276Z,72.13
2022-08-28T07:09:36.549Z,71.84
2022-08-28T07:10:44.563Z,71.83
2022-08-28T07:11:52.291Z,72.22
2022-08-28T07:13:01.791Z,71.86
2022-08-28T07:14:09.080Z,71.83
2022-08-28T07:15:17.279Z,71.90
2022-08-28T07:16:27.089Z,72.01
2022-08-28T07:17:35.080Z,72.33
2022-08-28T07:18:42.254Z,72.64
2022-08-28T07:19:49.209Z,72.71
2022-08-28T07:21:00.723Z,72.83
2022-08-28T07:22:10.226Z,73.02
2022-08-28T07:23:18.638Z,73.22
2022-08-28T07:24:27.488Z,73.34
2022-08-28T07:25:35.256Z,73.21
2022-08-28T07:26:43.106Z,73.38
2022-08-28T07:27:50.087Z,73.70
2022-08-28T07:29:09.596Z,73.66
2022-08-28T07:30:19.274Z,73.28
2022-08-28T07:31:29.609Z,73.47
2022-08-28T07:32:38.225Z,73.98
2022-08-28T07:33:46.194Z,74.13
2022-08-28T07:34:53.856Z,74.04
2022-08-28T07:36:02.305Z,73.95
2022-08-28T07:37:15.118Z,73.83
2022-08-28T07:38:24.679Z,73.84
2022-08-28T07:39:32.274Z,73.90
2022-08-28T07:40:39.378Z,74.35
2022-08-28T07:41:46.525Z,74.46
2022-08-28T07:43:11.912Z,74.61
2022-08-28T07:44:37.782Z,74.28
2022-08-28T07:45:44.868Z,74.61
2022-08-28T07:47:01.098Z,75.08
2022-08-28T07:48:11.603Z,75.05
2022-08-28T07:49:20.287Z,75.29
2022-08-28T07:50:28.561Z,75.58
2022-08-28T07:51:35.392Z,75.84
2022-08-28T07:52:42.440Z,75.90
2022-08-28T07:53:49.848Z,75.59
2022-08-28T07:54:57.561Z,75.58
2022-08-28T07:56:04.910Z,75.83
2022-08-28T07:57:12.021Z,75.87
2022-08-28T07:58:20.137Z,76.05
2022-08-28T07:59:29.571Z,76.51
2022-08-28T08:00:44.150Z,76.96
2022-08-28T08:01:51.997Z,77.07
2022-08-28T08:02:59.707Z,77.34
2022-08-28T08:04:11.349Z,77.33
2022-08-28T08:05:18.688Z,77.59
2022-08-28T08:06:28.860Z,77.93
2022-08-28T08:07:41.997Z,77.48
2022-08-28T08:08:51.480Z,77.50
2022-08-28T08:09:58.601Z,77.96
2022-08-28T08:11:13.879Z,77.87
2022-08-28T08:12:24.208Z,77.96
2022-08-28T08:13:33.112Z,78.50
2022-08-28T08:14:40.792Z,78.86
2022-08-28T08:15:47.619Z,78.74
2022-08-28T08:16:54.985Z,79.20
2022-08-28T08:18:02.663Z,79.27
2022-08-28T08:19:16.781Z,79.16
2022-08-28T08:20:23.904Z,79.25
2022-08-28T08:21:31.388Z,79.45
2022-08-28T08:22:38.862Z,79.51
2022-08-28T08:23:47.110Z,79.63
2022-08-28T08:24:55.764Z,79.60
2022-08-28T08:26:04.781Z,79.42
2022-08-28T08:27:12.998Z,79.52
2022-08-28T08:28:22.671Z,79.65
2022-08-28T08:29:32.888Z,79.53
2022-08-28T08:30:40.838Z,79.33
2022-08-28T08:31:48.749Z,79.22
2022-08-28T08:32:56.670Z,79.30
2022-08-28T08:34:06.971Z,79.69
2022-08-28T08:35:15.430Z,80.09
2022-08-28T08:36:24.868Z,80.13
2022-08-28T08:37:32.780Z,80.36
2022-08-28T08:38:40.481Z,79.86
2022-08-28T08:39:47.959Z,79.62
2022-08-28T08:40:56.279Z,79.60
2022-08-28T08:42:06.029Z,79.47
2022-08-28T08:43:14.800Z,79.53
2022-08-28T08:44:44.780Z,80.02
2022-08-28T08:45:53.677Z,80.27
2022-08-28T08:47:25.143Z,80.72
2022-08-28T08:48:36.489Z,80.75
2022-08-28T08:50:09.457Z,80.87
2022-08-28T08:51:28.847Z,80.75
2022-08-28T08:52:42.557Z,80.90
2022-08-28T08:54:03.287Z,80.93
2022-08-28T08:55:27.416Z,80.91
2022-08-28T08:56:35.220Z,81.02
2022-08-28T08:57:43.113Z,81.15
2022-08-28T08:58:55.026Z,81.08
2022-08-28T09:00:02.229Z,81.10
2022-08-28T09:01:28.182Z,81.69
2022-08-28T09:02:40.952Z,82.38
2022-08-28T09:03:53.790Z,82.92
2022-08-28T09:05:07.068Z,82.68
2022-08-28T09:06:42.316Z,82.75
2022-08-28T09:08:03.700Z,83.27
2022-08-28T09:09:21.894Z,83.27
2022-08-28T09:10:46.928Z,83.09
2022-08-28T09:11:57.564Z,83.47
2022-08-28T09:13:33.125Z,83.51
2022-08-28T09:15:06.920Z,84.00
2022-08-28T09:16:26.120Z,84.24
2022-08-28T09:18:18.854Z,83.84
2022-08-28T09:19:26.024Z,83.74
2022-08-28T09:20:33.577Z,83.58
2022-08-28T09:21:44.876Z,83.30
2022-08-28T09:22:52.094Z,83.61
2022-08-28T09:24:05.814Z,83.61
2022-08-28T09:25:51.370Z,83.17
2022-08-28T09:27:01.422Z,83.26
2022-08-28T09:28:09.570Z,83.48
2022-08-28T09:29:20.956Z,83.22
2022-08-28T09:30:33.246Z,83.14
2022-08-28T09:31:43.285Z,83.55
2022-08-28T09:33:02.163Z,83.24
2022-08-28T09:34:24.034Z,83.49
2022-08-28T09:35:33.058Z,83.74
2022-08-28T09:36:40.857Z,83.75
2022-08-28T09:37:47.927Z,83.95
2022-08-28T09:39:12.010Z,84.55
2022-08-28T09:40:55.127Z,84.43
2022-08-28T09:42:43.263Z,84.58
2022-08-28T09:43:50.736Z,85.14
2022-08-28T09:45:09.572Z,85.40
2022-08-28T09:46:33.334Z,85.75
2022-08-28T09:47:50.843Z,85.89
2022-08-28T09:49:14.171Z,86.06
2022-08-28T09:50:31.881Z,85.85
2022-08-28T09:51:40.178Z,85.71
2022-08-28T09:52:47.677Z,85.98
2022-08-28T09:53:58.099Z,86.16
2022-08-28T09:55:06.511Z,85.53
2022-08-28T09:56:25.024Z,85.55
2022-08-28T09:57:32.027Z,85.26
2022-08-28T09:58:53.017Z,85.35
2022-08-28T10:00:00.068Z,85.63
2022-08-28T10:01:39.166Z,85.64
2022-08-28T10:02:59.516Z,86.23
2022-08-28T10:04:19.417Z,86.44
2022-08-28T10:05:40.228Z,86.32
2022-08-28T10:06:54.118Z,86.78
2022-08-28T10:08:06.457Z,86.79
2022-08-28T10:09:28.526Z,87.08
2022-08-28T10:10:38.397Z,87.21
2022-08-28T10:12:13.410Z,87.01
2022-08-28T10:13:38.090Z,87.06
2022-08-28T10:15:12.137Z,87.26
2022-08-28T10:16:26.127Z,87.29
2022-08-28T10:17:36.470Z,87.41
2022-08-28T10:18:59.087Z,87.63
2022-08-28T10:20:50.566Z,87.54
2022-08-28T10:22:05.058Z,88.05
2022-08-28T10:23:50.089Z,88.13
2022-08-28T10:25:12.758Z,88.02
2022-08-28T10:26:25.677Z,88.20
2022-08-28T10:27:41.039Z,88.25
2022-08-28T10:29:09.489Z,88.31
2022-08-28T10:30:22.897Z,88.88
2022-08-28T10:31:40.440Z,88.85
2022-08-28T10:33:27.289Z,88.67
2022-08-28T10:34:59.369Z,88.67
2022-08-28T10:36:34.212Z,88.67
2022-08-28T10:37:49.498Z,88.99
2022-08-28T10:39:10.406Z,89.04
2022-08-28T10:40:20.588Z,89.07
2022-08-28T10:41:33.786Z,89.30
2022-08-28T10:42:44.642Z,89.54
2022-08-28T10:43:53.377Z,89.52
2022-08-28T10:45:11.315Z,89.62
2022-08-28T10:46:46.267Z,89.61
2022-08-28T10:48:01.143Z,89.66
2022-08-28T10:49:22.032Z,89.47
2022-08-28T10:50:43.940Z,89.27
2022-08-28T10:51:52.234Z,89.37
2022-08-28T10:53:44.451Z,89.46
2022-08-28T10:55:08.122Z,89.61
2022-08-28T10:56:25.280Z,89.62
2022-08-28T10:57:46.364Z,89.47
2022-08-28T10:58:56.805Z,89.37
2022-08-28T11:00:15.241Z,89.38
2022-08-28T11:01:42.583Z,89.23
2022-08-28T11:02:54.462Z,89.22
2022-08-28T11:04:04.662Z,88.88
2022-08-28T11:05:13.767Z,88.97
2022-08-28T11:06:35.135Z,89.30
2022-08-28T11:07:46.283Z,89.30
2022-08-28T11:08:58.174Z,89.24
2022-08-28T11:10:26.234Z,89.61
2022-08-28T11:11:48.002Z,89.93
2022-08-28T11:12:56.240Z,89.76
2022-08-28T11:14:04.355Z,89.76
2022-08-28T11:15:42.094Z,90.13
2022-08-28T11:16:51.394Z,90.30
2022-08-28T11:18:20.468Z,90.82
2022-08-28T11:19:51.649Z,91.12
2022-08-28T11:21:12.344Z,90.91
2022-08-28T11:22:24.786Z,90.59
2022-08-28T11:24:14.964Z,90.49
2022-08-28T11:25:32.587Z,90.29
2022-08-28T11:26:48.913Z,90.58
2022-08-28T11:28:18.944Z,90.82
2022-08-28T11:30:00.104Z,90.88
2022-08-28T11:31:08.141Z,90.91
2022-08-28T11:32:39.025Z,90.80
2022-08-28T11:33:54.331Z,90.95
2022-08-28T11:35:20.573Z,91.03
2022-08-28T11:36:29.583Z,91.24
2022-08-28T11:37:50.134Z,91.55
2022-08-28T11:38:56.983Z,91.58
2022-08-28T11:40:19.674Z,91.30
2022-08-28T11:41:29.513Z,91.12
2022-08-28T11:42:39.753Z,91.37
2022-08-28T11:43:46.983Z,91.39
2022-08-28T11:44:54.063Z,91.72
2022-08-28T11:46:01.641Z,92.18
2022-08-28T11:47:45.853Z,92.46
2022-08-28T11:48:58.386Z,92.17
2022-08-28T11:50:14.263Z,91.92
2022-08-28T11:51:39.986Z,91.83
2022-08-28T11:52:50.223Z,91.81
2022-08-28T11:54:12.643Z,91.99
2022-08-28T11:55:26.191Z,92.14
2022-08-28T11:56:52.663Z,92.45
2022-08-28T11:59:34.967Z,92.69
2022-08-28T12:00:53.321Z,92.90
2022-08-28T12:02:26.085Z,93.07
2022-08-28T12:03:51.532Z,92.93
2022-08-28T12:04:58.991Z,93.03
2022-08-28T12:06:06.116Z,93.00
2022-08-28T12:07:17.903Z,93.14
2022-08-28T12:08:50.157Z,92.77
2022-08-28T12:10:00.676Z,92.82
2022-08-28T12:11:10.946Z,93.05
2022-08-28T12:12:44.680Z,92.91
2022-08-28T12:13:53.532Z,92.49
2022-08-28T12:15:09.381Z,92.15
2022-08-28T12:16:17.806Z,92.04
2022-08-28T12:17:30.542Z,92.08
2022-08-28T12:18:44.319Z,92.14
2022-08-28T12:20:12.682Z,92.44
2022-08-28T12:21:25.291Z,92.65
2022-08-28T12:22:55.292Z,92.56
2022-08-28T12:24:09.906Z,92.61
2022-08-28T12:25:38.719Z,92.77
2022-08-28T12:26:47.574Z,92.68
2022-08-28T12:27:54.608Z,92.39
2022-08-28T12:29:07.008Z,92.40
2022-08-28T12:30:16.401Z,92.57
2022-08-28T12:31:51.897Z,92.77
2022-08-28T12:33:15.358Z,92.84
2022-08-28T12:34:35.359Z,92.97
2022-08-28T12:35:43.899Z,92.96
2022-08-28T12:36:59.350Z,92.92
2022-08-28T12:38:11.045Z,92.84
2022-08-28T12:39:20.327Z,92.67
2022-08-28T12:40:54.797Z,92.63
2022-08-28T12:42:04.378Z,92.28
2022-08-28T12:43:15.512Z,92.24
2022-08-28T12:44:28.668Z,92.53
2022-08-28T12:45:40.687Z,92.30
2022-08-28T12:46:50.660Z,92.22
2022-08-28T12:48:03.310Z,92.27
2022-08-28T12:49:32.299Z,92.18
2022-08-28T12:50:40.199Z,92.19
2022-08-28T12:51:47.047Z,92.18
2022-08-28T12:52:57.147Z,92.25
2022-08-28T12:54:09.784Z,92.36
2022-08-28T12:55:20.315Z,92.56
2022-08-28T12:56:37.936Z,92.54
2022-08-28T12:57:49.395Z,92.16
2022-08-28T12:58:57.458Z,91.90
2022-08-28T13:00:20.348Z,91.66
2022-08-28T13:01:34.197Z,91.50
2022-08-28T13:02:43.933Z,91.18
2022-08-28T13:04:01.137Z,91.19
2022-08-28T13:05:13.405Z,90.89
2022-08-28T13:06:35.369Z,90.65
2022-08-28T13:07:48.877Z,90.36
2022-08-28T13:09:08.977Z,90.06
2022-08-28T13:10:47.186Z,90.14
2022-08-28T13:11:54.613Z,90.11
2022-08-28T13:13:15.321Z,90.21
2022-08-28T13:14:59.369Z,90.21
2022-08-28T13:16:11.732Z,90.18
2022-08-28T13:17:43.386Z,90.23
2022-08-28T13:18:56.499Z,89.82
2022-08-28T13:20:09.383Z,89.61
2022-08-28T13:21:30.819Z,89.44
2022-08-28T13:22:50.657Z,89.42
2022-08-28T13:24:01.786Z,89.33
2022-08-28T13:25:11.552Z,89.09
2022-08-28T13:26:28.338Z,88.71
2022-08-28T13:27:35.973Z,88.51
2022-08-28T13:28:47.543Z,88.39
2022-08-28T13:30:36.353Z,88.17
2022-08-28T13:31:45.264Z,87.82
2022-08-28T13:33:03.826Z,87.53
2022-08-28T13:34:24.199Z,87.61
2022-08-28T13:35:35.122Z,87.66
2022-08-28T13:36:50.560Z,87.50
2022-08-28T13:38:10.418Z,87.22
2022-08-28T13:39:19.549Z,87.05
2022-08-28T13:40:59.140Z,87.15
2022-08-28T13:42:16.180Z,87.26
2022-08-28T13:43:26.067Z,87.40
2022-08-28T13:44:39.247Z,87.01
2022-08-28T13:45:49.707Z,86.68
2022-08-28T13:46:58.455Z,86.61
2022-08-28T13:48:07.557Z,86.57
2022-08-28T13:49:16.579Z,86.59
2022-08-28T13:50:25.646Z,86.44
2022-08-28T13:51:34.413Z,86.32
2022-08-28T13:52:47.519Z,86.16
2022-08-28T13:53:55.208Z,85.88
2022-08-28T13:55:04.971Z,85.48
2022-08-28T13:56:15.374Z,85.50
2022-08-28T13:57:25.908Z,85.46
2022-08-28T13:58:34.576Z,85.43
2022-08-28T13:59:42.597Z,85.13
2022-08-28T14:00:50.947Z,84.80
2022-08-28T14:02:19.107Z,84.51
2022-08-28T14:03:40.627Z,84.15
2022-08-28T14:04:48.198Z,84.24
2022-08-28T14:05:56.154Z,84.06
2022-08-28T14:07:03.626Z,84.10
2022-08-28T14:08:12.207Z,83.85
2022-08-28T14:09:20.695Z,83.68
2022-08-28T14:10:30.734Z,83.71
2022-08-28T14:11:38.464Z,83.61
2022-08-28T14:12:48.897Z,83.15
2022-08-28T14:13:56.612Z,83.04
2022-08-28T14:15:04.623Z,83.00
2022-08-28T14:16:14.821Z,82.44
2022-08-28T14:17:23.151Z,82.42
2022-08-28T14:18:33.313Z,82.31
2022-08-28T14:19:41.240Z,82.30
2022-08-28T14:20:49.301Z,82.40
2022-08-28T14:21:57.073Z,82.27
2022-08-28T14:23:05.986Z,81.96
2022-08-28T14:24:15.164Z,81.70
2022-08-28T14:25:24.132Z,81.03
2022-08-28T14:26:32.368Z,80.90
2022-08-28T14:27:40.063Z,81.06
2022-08-28T14:28:47.367Z,80.78
2022-08-28T14:29:54.739Z,80.86
2022-08-28T14:31:03.090Z,80.11
2022-08-28T14:32:11.984Z,80.31
2022-08-28T14:33:21.342Z,80.32
2022-08-28T14:34:30.382Z,80.15
2022-08-28T14:35:41.745Z,80.21
2022-08-28T14:36:52.382Z,79.96
2022-08-28T14:38:00.374Z,79.65
2022-08-28T14:39:09.215Z,79.46
2022-08-28T14:40:17.989Z,79.48
2022-08-28T14:41:27.454Z,79.54
2022-08-28T14:42:36.163Z,79.88
2022-08-28T14:43:45.746Z,79.98
2022-08-28T14:44:54.821Z,79.86
2022-08-28T14:46:03.326Z,79.67
2022-08-28T14:47:11.454Z,79.26
2022-08-28T14:48:20.574Z,78.97
2022-08-28T14:49:29.924Z,79.06
2022-08-28T14:50:44.285Z,78.81
2022-08-28T14:51:51.847Z,78.71
2022-08-28T14:52:59.623Z,78.39
2022-08-28T14:54:08.094Z,78.10
2022-08-28T14:55:18.648Z,78.03
2022-08-28T14:56:28.184Z,77.74
2022-08-28T14:57:40.163Z,77.58
2022-08-28T14:58:49.387Z,77.56
2022-08-28T14:59:56.220Z,77.04
2022-08-28T15:01:04.377Z,76.95
2022-08-28T15:02:15.282Z,76.38
2022-08-28T15:03:23.614Z,75.94
2022-08-28T15:04:37.408Z,75.96
2022-08-28T15:05:44.721Z,76.36
2022-08-28T15:06:53.199Z,76.68
2022-08-28T15:08:01.677Z,76.87
2022-08-28T15:09:11.518Z,76.74
2022-08-28T15:10:22.422Z,76.82
2022-08-28T15:11:30.966Z,76.49
2022-08-28T15:12:39.144Z,76.07
2022-08-28T15:13:51.364Z,75.76
2022-08-28T15:14:59.235Z,75.37
2022-08-28T15:16:15.829Z,75.06
2022-08-28T15:17:34.238Z,75.21
2022-08-28T15:18:45.826Z,75.15
2022-08-28T15:19:53.102Z,74.58
2022-08-28T15:21:00.903Z,74.08
2022-08-28T15:22:08.982Z,74.23
2022-08-28T15:23:18.751Z,74.47
2022-08-28T15:24:32.728Z,73.93
2022-08-28T15:25:40.545Z,74.12
2022-08-28T15:26:48.226Z,73.96
2022-08-28T15:27:55.301Z,73.80
2022-08-28T15:29:08.581Z,73.75
2022-08-28T15:30:16.976Z,73.20